createdAt,value
2023-02-23T00:01:23.324Z,98199.00
2023-02-23T00:04:11.180Z,98186.00
2023-02-23T00:06:59.464Z,98196.00
2023-02-23T00:09:47.669Z,98189.00
2023-02-23T00:12:37.861Z,98196.00
2023-02-23T00:15:30.098Z,98192.00
2023-02-23T00:18:17.639Z,98198.00
2023-02-23T00:21:05.401Z,98190.00
2023-02-23T00:24:00.059Z,98197.00
2023-02-23T00:26:51.661Z,98198.00
2023-02-23T00:29:40.797Z,98202.00
2023-02-23T00:32:28.671Z,98196.00
2023-02-23T00:35:20.202Z,98199.00
2023-02-23T00:38:07.935Z,98207.00
2023-02-23T00:40:55.481Z,98200.00
2023-02-23T00:43:54.998Z,98195.00
2023-02-23T00:46:44.766Z,98201.00
2023-02-23T00:49:32.712Z,98202.00
2023-02-23T00:52:20.294Z,98205.00
2023-02-23T00:55:15.515Z,98198.00
2023-02-23T00:58:04.716Z,98196.00
2023-02-23T01:00:54.282Z,98198.00
2023-02-23T01:03:44.522Z,98199.00
2023-02-23T01:06:33.702Z,98200.00
2023-02-23T01:09:28.391Z,98207.00
2023-02-23T01:12:17.084Z,98207.00
2023-02-23T01:15:08.567Z,98201.00
2023-02-23T01:17:56.356Z,98202.00
2023-02-23T01:20:45.597Z,98201.00
2023-02-23T01:23:33.646Z,98201.00
2023-02-23T01:26:35.103Z,98198.00
2023-02-23T01:29:22.836Z,98190.00
2023-02-23T01:32:10.450Z,98198.00
2023-02-23T01:34:58.146Z,98190.00
2023-02-23T01:37:45.788Z,98193.00
2023-02-23T01:40:37.333Z,98195.00
2023-02-23T01:43:27.689Z,98189.00
2023-02-23T01:46:15.280Z,98194.00
2023-02-23T01:49:06.439Z,98196.00
2023-02-23T01:52:13.460Z,98194.00
2023-02-23T01:55:01.264Z,98189.00
2023-02-23T01:57:50.327Z,98195.00
2023-02-23T02:00:38.309Z,98197.00
2023-02-23T02:03:41.988Z,98190.00
2023-02-23T02:06:31.096Z,98192.00
2023-02-23T02:09:19.189Z,98191.00
2023-02-23T02:12:12.369Z,98193.00
2023-02-23T02:15:02.294Z,98187.00
2023-02-23T02:18:23.687Z,98192.00
2023-02-23T02:21:52.496Z,98187.00
2023-02-23T02:25:33.258Z,98196.00
2023-02-23T02:28:54.966Z,98185.00
2023-02-23T02:32:14.860Z,98184.00
2023-02-23T02:35:32.909Z,98190.00
2023-02-23T02:39:17.951Z,98186.00
2023-02-23T02:42:35.259Z,98183.00
2023-02-23T02:45:41.431Z,98190.00
2023-02-23T02:48:42.459Z,98180.00
2023-02-23T02:51:55.097Z,98187.00
2023-02-23T02:54:53.710Z,98185.00
2023-02-23T02:57:46.935Z,98179.00
2023-02-23T03:01:05.755Z,98186.00
2023-02-23T03:04:12.686Z,98178.00
2023-02-23T03:07:32.080Z,98189.00
2023-02-23T03:10:53.366Z,98189.00
2023-02-23T03:14:47.324Z,98197.00
2023-02-23T03:18:04.996Z,98199.00
2023-02-23T03:21:18.506Z,98206.00
2023-02-23T03:25:04.904Z,98203.00
2023-02-23T03:28:16.607Z,98197.00
2023-02-23T03:32:01.567Z,98193.00
2023-02-23T03:35:37.883Z,98201.00
2023-02-23T03:38:52.817Z,98196.00
2023-02-23T03:42:02.517Z,98205.00
2023-02-23T03:45:11.336Z,98210.00
2023-02-23T03:48:22.540Z,98208.00
2023-02-23T03:51:33.641Z,98218.00
2023-02-23T03:55:08.015Z,98210.00
2023-02-23T03:58:21.292Z,98215.00
2023-02-23T04:01:38.554Z,98215.00
2023-02-23T04:04:47.899Z,98210.00
2023-02-23T04:07:57.892Z,98221.00
2023-02-23T04:11:21.557Z,98213.00
2023-02-23T04:14:19.727Z,98213.00
2023-02-23T04:17:09.702Z,98219.00
2023-02-23T04:19:57.796Z,98218.00
2023-02-23T04:22:45.561Z,98217.00
2023-02-23T04:25:33.080Z,98213.00
2023-02-23T04:28:23.144Z,98223.00
2023-02-23T04:31:10.844Z,98213.00
2023-02-23T04:33:58.524Z,98218.00
2023-02-23T04:36:46.131Z,98217.00
2023-02-23T04:39:33.963Z,98223.00
2023-02-23T04:42:21.630Z,98214.00
2023-02-23T04:45:10.146Z,98221.00
2023-02-23T04:47:57.834Z,98216.00
2023-02-23T04:50:45.380Z,98218.00
2023-02-23T04:53:33.321Z,98212.00
2023-02-23T04:56:20.971Z,98219.00
2023-02-23T04:59:09.254Z,98213.00
2023-02-23T05:01:56.942Z,98215.00
2023-02-23T05:04:44.889Z,98203.00
2023-02-23T05:07:32.834Z,98210.00
2023-02-23T05:10:21.081Z,98204.00
2023-02-23T05:13:08.952Z,98208.00
2023-02-23T05:15:58.359Z,98212.00
2023-02-23T05:18:46.206Z,98215.00
2023-02-23T05:21:33.790Z,98209.00
2023-02-23T05:24:21.532Z,98213.00
2023-02-23T05:27:11.467Z,98209.00
2023-02-23T05:29:59.089Z,98211.00
2023-02-23T05:32:46.755Z,98206.00
2023-02-23T05:35:34.624Z,98211.00
2023-02-23T05:38:22.561Z,98222.00
2023-02-23T05:41:13.816Z,98219.00
2023-02-23T05:44:01.805Z,98215.00
2023-02-23T05:46:53.327Z,98222.00
2023-02-23T05:49:41.051Z,98226.00
2023-02-23T05:52:28.847Z,98219.00
2023-02-23T05:55:16.687Z,98221.00
2023-02-23T05:58:04.585Z,98225.00
2023-02-23T06:00:52.881Z,98234.00
2023-02-23T06:03:40.612Z,98229.00
2023-02-23T06:06:28.615Z,98230.00
2023-02-23T06:09:16.919Z,98226.00
2023-02-23T06:12:05.360Z,98232.00
2023-02-23T06:14:53.319Z,98228.00
2023-02-23T06:17:40.861Z,98242.00
2023-02-23T06:20:28.637Z,98239.00
2023-02-23T06:23:16.206Z,98243.00
2023-02-23T06:26:03.935Z,98254.00
2023-02-23T06:28:51.643Z,98255.00
2023-02-23T06:31:39.638Z,98246.00
2023-02-23T06:34:27.415Z,98253.00
2023-02-23T06:37:15.274Z,98258.00
2023-02-23T06:40:05.242Z,98258.00
2023-02-23T06:42:53.400Z,98266.00
2023-02-23T06:45:41.041Z,98266.00
2023-02-23T06:48:29.002Z,98269.00
2023-02-23T06:51:17.218Z,98270.00
2023-02-23T06:54:05.024Z,98267.00
2023-02-23T06:56:53.428Z,98275.00
2023-02-23T06:59:41.330Z,98284.00
2023-02-23T07:02:29.018Z,98279.00
2023-02-23T07:05:16.861Z,98275.00
2023-02-23T07:08:05.427Z,98284.00
2023-02-23T07:10:53.640Z,98273.00
2023-02-23T07:13:42.605Z,98284.00
2023-02-23T07:16:30.565Z,98290.00
2023-02-23T07:19:18.388Z,98289.00
2023-02-23T07:22:06.171Z,98289.00
2023-02-23T07:24:53.840Z,98290.00
2023-02-23T07:27:42.372Z,98293.00
2023-02-23T07:30:29.960Z,98280.00
2023-02-23T07:33:17.741Z,98285.00
2023-02-23T07:36:06.134Z,98284.00
2023-02-23T07:38:54.353Z,98288.00
2023-02-23T07:41:42.222Z,98292.00
2023-02-23T07:44:29.813Z,98293.00
2023-02-23T07:47:17.423Z,98288.00
2023-02-23T07:50:09.982Z,98291.00
2023-02-23T07:52:57.719Z,98290.00
2023-02-23T07:55:45.702Z,98294.00
2023-02-23T07:58:33.813Z,98296.00
2023-02-23T08:01:21.889Z,98298.00
2023-02-23T08:04:10.112Z,98294.00
2023-02-23T08:06:57.740Z,98294.00
2023-02-23T08:09:45.320Z,98303.00
2023-02-23T08:12:34.694Z,98295.00
2023-02-23T08:15:22.287Z,98297.00
2023-02-23T08:18:11.538Z,98304.00
2023-02-23T08:21:02.259Z,98306.00
2023-02-23T08:23:50.078Z,98304.00
2023-02-23T08:26:41.058Z,98304.00
2023-02-23T08:29:29.333Z,98301.00
2023-02-23T08:32:17.097Z,98309.00
2023-02-23T08:35:05.593Z,98300.00
2023-02-23T08:37:53.504Z,98303.00
2023-02-23T08:40:41.390Z,98305.00
2023-02-23T08:43:30.133Z,98307.00
2023-02-23T08:46:20.391Z,98309.00
2023-02-23T08:49:11.270Z,98308.00
2023-02-23T08:51:58.849Z,98307.00
2023-02-23T08:54:47.477Z,98311.00
2023-02-23T08:57:36.516Z,98311.00
2023-02-23T09:00:24.502Z,98313.00
2023-02-23T09:03:12.095Z,98313.00
2023-02-23T09:06:09.868Z,98314.00
2023-02-23T09:08:57.870Z,98310.00
2023-02-23T09:11:45.484Z,98320.00
2023-02-23T09:14:33.479Z,98316.00
2023-02-23T09:17:23.160Z,98320.00
2023-02-23T09:20:13.725Z,98312.00
2023-02-23T09:23:01.416Z,98312.00
2023-02-23T09:25:49.019Z,98319.00
2023-02-23T09:28:38.801Z,98316.00
2023-02-23T09:31:27.265Z,98318.00
2023-02-23T09:34:15.578Z,98308.00
2023-02-23T09:37:04.571Z,98314.00
2023-02-23T09:39:52.327Z,98316.00
2023-02-23T09:42:54.443Z,98322.00
2023-02-23T09:45:56.370Z,98318.00
2023-02-23T09:48:44.278Z,98316.00
2023-02-23T09:51:41.314Z,98321.00
2023-02-23T09:54:35.870Z,98323.00
2023-02-23T09:57:39.606Z,98317.00
2023-02-23T10:00:28.031Z,98316.00
2023-02-23T10:03:26.204Z,98324.00
2023-02-23T10:06:18.539Z,98323.00
2023-02-23T10:09:40.363Z,98321.00
2023-02-23T10:12:46.695Z,98317.00
2023-02-23T10:15:47.365Z,98325.00
2023-02-23T10:18:56.618Z,98316.00
2023-02-23T10:21:56.164Z,98314.00
2023-02-23T10:24:55.678Z,98322.00
2023-02-23T10:27:49.343Z,98327.00
2023-02-23T10:30:36.979Z,98322.00
2023-02-23T10:33:38.423Z,98315.00
2023-02-23T10:36:42.833Z,98317.00
2023-02-23T10:39:32.920Z,98304.00
2023-02-23T10:42:29.154Z,98307.00
2023-02-23T10:45:23.566Z,98297.00
2023-02-23T10:48:41.363Z,98300.00
2023-02-23T10:51:37.248Z,98300.00
2023-02-23T10:54:47.758Z,98294.00
2023-02-23T10:57:40.098Z,98303.00
2023-02-23T11:00:33.303Z,98295.00
2023-02-23T11:03:43.035Z,98290.00
2023-02-23T11:06:43.061Z,98289.00
2023-02-23T11:09:45.700Z,98281.00
2023-02-23T11:12:43.552Z,98283.00
2023-02-23T11:15:50.805Z,98289.00
2023-02-23T11:18:43.091Z,98273.00
2023-02-23T11:21:40.275Z,98279.00
2023-02-23T11:24:35.243Z,98266.00
2023-02-23T11:27:27.841Z,98268.00
2023-02-23T11:30:16.348Z,98268.00
2023-02-23T11:33:10.892Z,98260.00
2023-02-23T11:36:12.603Z,98267.00
2023-02-23T11:39:14.467Z,98256.00
2023-02-23T11:42:27.400Z,98256.00
2023-02-23T11:45:21.117Z,98252.00
2023-02-23T11:48:30.654Z,98249.00
2023-02-23T11:51:33.227Z,98246.00
2023-02-23T11:54:31.567Z,98255.00
2023-02-23T11:57:31.190Z,98253.00
2023-02-23T12:00:28.063Z,98238.00
2023-02-23T12:03:26.089Z,98238.00
2023-02-23T12:06:30.591Z,98241.00
2023-02-23T12:09:32.717Z,98238.00
2023-02-23T12:12:24.771Z,98241.00
2023-02-23T12:15:43.437Z,98233.00
2023-02-23T12:18:41.844Z,98227.00
2023-02-23T12:21:41.320Z,98230.00
2023-02-23T12:24:34.858Z,98220.00
2023-02-23T12:27:50.773Z,98228.00
2023-02-23T12:31:44.407Z,98222.00
2023-02-23T12:35:23.277Z,98217.00
2023-02-23T12:38:51.023Z,98215.00
2023-02-23T12:42:23.098Z,98201.00
2023-02-23T12:45:31.984Z,98202.00
2023-02-23T12:48:39.298Z,98194.00
2023-02-23T12:52:08.684Z,98195.00
2023-02-23T12:54:56.406Z,98202.00
2023-02-23T12:58:01.780Z,98194.00
2023-02-23T13:01:03.518Z,98191.00
2023-02-23T13:04:24.828Z,98194.00
2023-02-23T13:07:42.022Z,98190.00
2023-02-23T13:10:41.818Z,98184.00
2023-02-23T13:13:38.076Z,98193.00
2023-02-23T13:16:38.923Z,98188.00
2023-02-23T13:19:53.963Z,98182.00
2023-02-23T13:23:10.917Z,98189.00
2023-02-23T13:26:55.452Z,98185.00
2023-02-23T13:29:46.682Z,98176.00
2023-02-23T13:32:39.507Z,98184.00
2023-02-23T13:35:32.128Z,98194.00
2023-02-23T13:39:17.913Z,98184.00
2023-02-23T13:42:20.071Z,98184.00
2023-02-23T13:45:39.148Z,98190.00
2023-02-23T13:48:56.672Z,98187.00
2023-02-23T13:52:10.786Z,98186.00
2023-02-23T13:55:04.075Z,98181.00
2023-02-23T13:58:03.275Z,98180.00
2023-02-23T14:01:23.617Z,98178.00
2023-02-23T14:04:51.163Z,98181.00
2023-02-23T14:07:45.333Z,98180.00
2023-02-23T14:10:45.484Z,98182.00
2023-02-23T14:13:41.467Z,98173.00
2023-02-23T14:16:30.066Z,98184.00
2023-02-23T14:19:58.500Z,98175.00
2023-02-23T14:23:22.723Z,98187.00
2023-02-23T14:26:29.222Z,98176.00
2023-02-23T14:29:20.177Z,98180.00
2023-02-23T14:32:13.733Z,98172.00
2023-02-23T14:35:02.882Z,98169.00
2023-02-23T14:38:01.978Z,98172.00
2023-02-23T14:40:51.717Z,98169.00
2023-02-23T14:43:43.201Z,98168.00
2023-02-23T14:46:31.990Z,98170.00
2023-02-23T14:49:22.911Z,98164.00
2023-02-23T14:52:32.384Z,98165.00
2023-02-23T14:55:28.106Z,98163.00
2023-02-23T14:58:28.536Z,98163.00
2023-02-23T15:01:39.707Z,98169.00
2023-02-23T15:04:32.120Z,98163.00
2023-02-23T15:07:37.925Z,98166.00
2023-02-23T15:10:35.727Z,98163.00
2023-02-23T15:13:31.936Z,98157.00
2023-02-23T15:16:35.807Z,98161.00
2023-02-23T15:19:27.967Z,98158.00
2023-02-23T15:22:30.924Z,98156.00
2023-02-23T15:25:26.297Z,98159.00
2023-02-23T15:28:26.134Z,98156.00
2023-02-23T15:31:14.104Z,98157.00
2023-02-23T15:34:02.120Z,98151.00
2023-02-23T15:37:02.071Z,98156.00
2023-02-23T15:39:53.614Z,98148.00
2023-02-23T15:42:52.278Z,98144.00
2023-02-23T15:45:49.659Z,98149.00
2023-02-23T15:48:48.693Z,98149.00
2023-02-23T15:51:53.250Z,98144.00
2023-02-23T15:54:48.303Z,98148.00
2023-02-23T15:57:52.914Z,98146.00
2023-02-23T16:00:45.042Z,98143.00
2023-02-23T16:03:44.652Z,98143.00
2023-02-23T16:06:36.040Z,98146.00
2023-02-23T16:09:28.575Z,98146.00
2023-02-23T16:12:52.742Z,98144.00
2023-02-23T16:15:41.874Z,98130.00
2023-02-23T16:18:43.460Z,98133.00
2023-02-23T16:21:32.533Z,98131.00
2023-02-23T16:24:25.821Z,98128.00
2023-02-23T16:27:13.800Z,98127.00
2023-02-23T16:30:18.766Z,98128.00
2023-02-23T16:33:13.773Z,98133.00
2023-02-23T16:36:21.479Z,98131.00
2023-02-23T16:39:13.357Z,98130.00
2023-02-23T16:42:01.588Z,98131.00
2023-02-23T16:44:49.548Z,98128.00
2023-02-23T16:47:47.808Z,98125.00
2023-02-23T16:50:36.568Z,98127.00
2023-02-23T16:53:24.451Z,98136.00
2023-02-23T16:56:19.421Z,98138.00
2023-02-23T16:59:11.166Z,98139.00
2023-02-23T17:01:58.708Z,98138.00
2023-02-23T17:04:49.225Z,98141.00
2023-02-23T17:07:37.056Z,98142.00
2023-02-23T17:10:33.412Z,98141.00
2023-02-23T17:13:25.683Z,98137.00
2023-02-23T17:16:14.471Z,98143.00
2023-02-23T17:19:02.430Z,98145.00
2023-02-23T17:21:50.502Z,98142.00
2023-02-23T17:24:39.103Z,98137.00
2023-02-23T17:27:26.780Z,98139.00
2023-02-23T17:30:15.307Z,98144.00
2023-02-23T17:33:04.952Z,98149.00
2023-02-23T17:35:52.819Z,98151.00
2023-02-23T17:38:44.827Z,98146.00
2023-02-23T17:41:34.633Z,98145.00
2023-02-23T17:44:22.366Z,98155.00
2023-02-23T17:47:10.127Z,98156.00
2023-02-23T17:49:59.929Z,98154.00
2023-02-23T17:52:52.303Z,98147.00
2023-02-23T17:55:40.047Z,98154.00
2023-02-23T17:58:28.480Z,98154.00
2023-02-23T18:01:18.102Z,98153.00
2023-02-23T18:04:05.953Z,98148.00
2023-02-23T18:06:53.603Z,98149.00
2023-02-23T18:09:41.736Z,98149.00
2023-02-23T18:12:30.044Z,98151.00
2023-02-23T18:15:18.706Z,98148.00
2023-02-23T18:18:06.472Z,98156.00
2023-02-23T18:21:00.421Z,98149.00
2023-02-23T18:23:50.598Z,98154.00
2023-02-23T18:26:38.868Z,98146.00
2023-02-23T18:29:29.231Z,98155.00
2023-02-23T18:32:17.284Z,98147.00
2023-02-23T18:35:05.574Z,98153.00
2023-02-23T18:37:53.582Z,98153.00
2023-02-23T18:40:41.811Z,98157.00
2023-02-23T18:43:29.479Z,98153.00
2023-02-23T18:46:17.959Z,98156.00
2023-02-23T18:49:06.305Z,98150.00
2023-02-23T18:51:54.633Z,98139.00
2023-02-23T18:54:42.589Z,98140.00
2023-02-23T18:57:30.367Z,98140.00
2023-02-23T19:00:20.344Z,98140.00
2023-02-23T19:03:08.367Z,98136.00
2023-02-23T19:05:58.846Z,98134.00
2023-02-23T19:08:54.467Z,98141.00
2023-02-23T19:11:43.894Z,98145.00
2023-02-23T19:14:48.389Z,98139.00
2023-02-23T19:17:37.264Z,98138.00
2023-02-23T19:20:27.054Z,98145.00
2023-02-23T19:23:14.601Z,98151.00
2023-02-23T19:26:05.710Z,98145.00
2023-02-23T19:28:53.910Z,98154.00
2023-02-23T19:31:41.816Z,98148.00
2023-02-23T19:34:29.694Z,98150.00
2023-02-23T19:37:17.245Z,98153.00
2023-02-23T19:40:05.993Z,98156.00
2023-02-23T19:42:53.918Z,98152.00
2023-02-23T19:45:46.376Z,98151.00
2023-02-23T19:48:34.134Z,98150.00
2023-02-23T19:51:23.383Z,98153.00
2023-02-23T19:54:12.161Z,98153.00
2023-02-23T19:57:00.415Z,98149.00
2023-02-23T19:59:50.729Z,98146.00
2023-02-23T20:02:44.680Z,98140.00
2023-02-23T20:05:42.482Z,98135.00
2023-02-23T20:08:30.263Z,98131.00
2023-02-23T20:11:18.284Z,98136.00
2023-02-23T20:14:08.300Z,98136.00
2023-02-23T20:16:56.183Z,98145.00
2023-02-23T20:19:44.122Z,98140.00
2023-02-23T20:22:33.597Z,98130.00
2023-02-23T20:25:23.217Z,98135.00
2023-02-23T20:28:10.980Z,98131.00
2023-02-23T20:30:58.578Z,98136.00
2023-02-23T20:33:50.533Z,98128.00
2023-02-23T20:36:38.979Z,98122.00
2023-02-23T20:39:27.261Z,98130.00
2023-02-23T20:42:15.083Z,98131.00
2023-02-23T20:45:02.900Z,98127.00
2023-02-23T20:47:56.439Z,98132.00
2023-02-23T20:50:44.375Z,98125.00
2023-02-23T20:53:32.006Z,98129.00
2023-02-23T20:56:23.642Z,98123.00
2023-02-23T20:59:12.912Z,98125.00
2023-02-23T21:02:01.795Z,98114.00
2023-02-23T21:04:49.571Z,98130.00
2023-02-23T21:07:37.886Z,98124.00
2023-02-23T21:10:25.740Z,98122.00
2023-02-23T21:13:13.427Z,98114.00
2023-02-23T21:16:03.701Z,98119.00
2023-02-23T21:19:04.389Z,98124.00
2023-02-23T21:21:58.413Z,98112.00
2023-02-23T21:24:46.197Z,98119.00
2023-02-23T21:27:37.414Z,98113.00
2023-02-23T21:30:28.773Z,98118.00
2023-02-23T21:33:16.977Z,98108.00
2023-02-23T21:36:05.988Z,98107.00
2023-02-23T21:38:53.569Z,98108.00
2023-02-23T21:41:41.161Z,98101.00
2023-02-23T21:44:28.703Z,98103.00
2023-02-23T21:47:16.703Z,98100.00
2023-02-23T21:50:06.217Z,98108.00
2023-02-23T21:52:57.931Z,98112.00
2023-02-23T21:55:45.567Z,98110.00
2023-02-23T21:58:33.807Z,98101.00
2023-02-23T22:01:28.945Z,98094.00
2023-02-23T22:04:16.642Z,98098.00
2023-02-23T22:07:04.922Z,98094.00
2023-02-23T22:09:52.519Z,98097.00
2023-02-23T22:12:40.062Z,98097.00
2023-02-23T22:15:27.842Z,98102.00
2023-02-23T22:18:15.761Z,98100.00
2023-02-23T22:21:04.770Z,98100.00
2023-02-23T22:23:54.059Z,98099.00
2023-02-23T22:26:54.096Z,98097.00
2023-02-23T22:29:42.387Z,98096.00
2023-02-23T22:32:33.558Z,98097.00
2023-02-23T22:35:21.485Z,98089.00
2023-02-23T22:38:09.028Z,98088.00
2023-02-23T22:40:57.328Z,98080.00
2023-02-23T22:43:46.961Z,98088.00
2023-02-23T22:46:34.663Z,98094.00
2023-02-23T22:49:22.618Z,98082.00
2023-02-23T22:52:10.198Z,98082.00
2023-02-23T22:54:58.016Z,98081.00
2023-02-23T22:57:49.220Z,98078.00
2023-02-23T23:00:36.766Z,98076.00
2023-02-23T23:03:27.353Z,98070.00
2023-02-23T23:06:22.302Z,98068.00
2023-02-23T23:09:12.965Z,98067.00
2023-02-23T23:12:00.725Z,98071.00
2023-02-23T23:14:48.738Z,98061.00
2023-02-23T23:17:36.542Z,98061.00
2023-02-23T23:20:27.792Z,98066.00
2023-02-23T23:23:17.479Z,98062.00
2023-02-23T23:26:06.738Z,98066.00
2023-02-23T23:28:58.626Z,98062.00
2023-02-23T23:31:46.581Z,98061.00
2023-02-23T23:34:34.763Z,98051.00
2023-02-23T23:37:22.429Z,98052.00
2023-02-23T23:40:14.902Z,98051.00
2023-02-23T23:43:02.596Z,98044.00
2023-02-23T23:45:52.180Z,98046.00
2023-02-23T23:48:39.782Z,98038.00
2023-02-23T23:51:37.496Z,98040.00
2023-02-23T23:54:37.718Z,98035.00
2023-02-23T23:57:26.520Z,98025.00
